sensor_id;sensor_type;location;lat;lon;timestamp;pressure;altitude;pressure_sealevel;temperature;humidity
74343;BME280;62767;50.300;8.070;2023-11-19T00:00:50;99590.78;;;15.54;47.85
74343;BME280;62767;50.300;8.070;2023-11-19T00:03:16;99591.63;;;15.55;47.70
74343;BME280;62767;50.300;8.070;2023-11-19T00:05:43;99597.69;;;15.55;47.64
74343;BME280;62767;50.300;8.070;2023-11-19T00:08:10;99598.78;;;15.53;47.77
74343;BME280;62767;50.300;8.070;2023-11-19T00:10:36;99595.19;;;15.54;47.76
74343;BME280;62767;50.300;8.070;2023-11-19T00:13:01;99596.03;;;15.54;47.82
74343;BME280;62767;50.300;8.070;2023-11-19T00:15:28;99597.69;;;15.55;47.77
74343;BME280;62767;50.300;8.070;2023-11-19T00:17:54;99595.88;;;15.56;47.69
74343;BME280;62767;50.300;8.070;2023-11-19T00:20:20;99589.97;;;15.54;47.65
74343;BME280;62767;50.300;8.070;2023-11-19T00:22:48;99593.41;;;15.54;47.83
74343;BME280;62767;50.300;8.070;2023-11-19T00:25:20;99586.38;;;15.55;47.70
74343;BME280;62767;50.300;8.070;2023-11-19T00:27:47;99567.03;;;15.56;47.73
74343;BME280;62767;50.300;8.070;2023-11-19T00:30:13;99568.97;;;15.54;47.79
74343;BME280;62767;50.300;8.070;2023-11-19T00:32:40;99580.41;;;15.53;47.69
74343;BME280;62767;50.300;8.070;2023-11-19T00:35:06;99561.09;;;15.54;47.79
74343;BME280;62767;50.300;8.070;2023-11-19T00:37:32;99557.53;;;15.55;47.83
74343;BME280;62767;50.300;8.070;2023-11-19T00:39:58;99559.31;;;15.54;47.75
74343;BME280;62767;50.300;8.070;2023-11-19T00:42:24;99552.41;;;15.53;48.08
74343;BME280;62767;50.300;8.070;2023-11-19T00:44:50;99545.22;;;15.55;47.75
74343;BME280;62767;50.300;8.070;2023-11-19T00:47:17;99551.56;;;15.53;47.74
74343;BME280;62767;50.300;8.070;2023-11-19T00:49:46;99542.75;;;15.54;47.90
74343;BME280;62767;50.300;8.070;2023-11-19T00:52:14;99533.09;;;15.54;48.00
74343;BME280;62767;50.300;8.070;2023-11-19T00:54:40;99529.75;;;15.52;47.88
74343;BME280;62767;50.300;8.070;2023-11-19T00:57:06;99520.09;;;15.53;47.60
74343;BME280;62767;50.300;8.070;2023-11-19T00:59:31;99526.84;;;15.55;47.80
74343;BME280;62767;50.300;8.070;2023-11-19T01:01:58;99521.63;;;15.55;47.58
74343;BME280;62767;50.300;8.070;2023-11-19T01:04:29;99521.78;;;15.54;47.66
74343;BME280;62767;50.300;8.070;2023-11-19T01:06:55;99526.84;;;15.55;47.76
74343;BME280;62767;50.300;8.070;2023-11-19T01:09:20;99517.34;;;15.54;47.70
74343;BME280;62767;50.300;8.070;2023-11-19T01:11:46;99511.13;;;15.55;47.62
74343;BME280;62767;50.300;8.070;2023-11-19T01:14:12;99517.34;;;15.54;47.71
74343;BME280;62767;50.300;8.070;2023-11-19T01:16:37;99517.19;;;15.56;47.70
74343;BME280;62767;50.300;8.070;2023-11-19T01:19:03;99510.31;;;15.55;47.57
74343;BME280;62767;50.300;8.070;2023-11-19T01:21:30;99503.25;;;15.55;47.97
74343;BME280;62767;50.300;8.070;2023-11-19T01:23:57;99515.28;;;15.58;47.52
74343;BME280;62767;50.300;8.070;2023-11-19T01:26:24;99522.44;;;15.56;47.65
74343;BME280;62767;50.300;8.070;2023-11-19T01:28:49;99515.41;;;15.56;47.74
74343;BME280;62767;50.300;8.070;2023-11-19T01:31:18;99506.72;;;15.56;47.60
74343;BME280;62767;50.300;8.070;2023-11-19T01:33:43;99506.72;;;15.56;47.73
74343;BME280;62767;50.300;8.070;2023-11-19T01:36:09;99504.09;;;15.56;47.71
74343;BME280;62767;50.300;8.070;2023-11-19T01:38:38;99501.63;;;15.54;47.94
74343;BME280;62767;50.300;8.070;2023-11-19T01:41:04;99489.19;;;15.56;47.67
74343;BME280;62767;50.300;8.070;2023-11-19T01:43:34;99495.38;;;15.55;47.63
74343;BME280;62767;50.300;8.070;2023-11-19T01:46:00;99496.94;;;15.58;47.65
74343;BME280;62767;50.300;8.070;2023-11-19T01:48:27;99494.31;;;15.58;47.69
74343;BME280;62767;50.300;8.070;2023-11-19T01:50:53;99513.50;;;15.58;47.53
74343;BME280;62767;50.300;8.070;2023-11-19T01:53:19;99510.16;;;15.56;47.64
74343;BME280;62767;50.300;8.070;2023-11-19T01:55:49;99501.34;;;15.57;47.62
74343;BME280;62767;50.300;8.070;2023-11-19T01:58:16;99498.84;;;15.56;47.65
74343;BME280;62767;50.300;8.070;2023-11-19T02:00:42;99491.69;;;15.58;47.68
74343;BME280;62767;50.300;8.070;2023-11-19T02:03:09;99478.56;;;15.58;47.43
74343;BME280;62767;50.300;8.070;2023-11-19T02:05:36;99481.19;;;15.58;47.54
74343;BME280;62767;50.300;8.070;2023-11-19T02:08:02;99478.00;;;15.54;47.77
74343;BME280;62767;50.300;8.070;2023-11-19T02:10:28;99480.47;;;15.56;47.65
74343;BME280;62767;50.300;8.070;2023-11-19T02:12:54;99469.88;;;15.57;47.61
74343;BME280;62767;50.300;8.070;2023-11-19T02:15:21;99471.66;;;15.57;47.60
74343;BME280;62767;50.300;8.070;2023-11-19T02:17:50;99465.56;;;15.56;47.84
74343;BME280;62767;50.300;8.070;2023-11-19T02:20:16;99460.50;;;15.55;47.61
74343;BME280;62767;50.300;8.070;2023-11-19T02:22:42;99459.50;;;15.56;47.79
74343;BME280;62767;50.300;8.070;2023-11-19T02:25:30;99453.41;;;15.55;47.98
74343;BME280;62767;50.300;8.070;2023-11-19T02:28:02;99458.66;;;15.55;47.56
74343;BME280;62767;50.300;8.070;2023-11-19T02:30:28;99453.31;;;15.57;47.81
74343;BME280;62767;50.300;8.070;2023-11-19T02:32:55;99457.59;;;15.58;47.67
74343;BME280;62767;50.300;8.070;2023-11-19T02:35:23;99457.72;;;15.56;47.76
74343;BME280;62767;50.300;8.070;2023-11-19T02:37:49;99449.84;;;15.56;47.70
74343;BME280;62767;50.300;8.070;2023-11-19T02:40:15;99441.03;;;15.57;47.73
74343;BME280;62767;50.300;8.070;2023-11-19T02:42:41;99445.44;;;15.57;47.94
74343;BME280;62767;50.300;8.070;2023-11-19T02:45:07;99441.84;;;15.58;47.92
74343;BME280;62767;50.300;8.070;2023-11-19T02:47:33;99454.25;;;15.56;47.98
74343;BME280;62767;50.300;8.070;2023-11-19T02:50:00;99449.84;;;15.56;47.82
74343;BME280;62767;50.300;8.070;2023-11-19T02:52:26;99434.94;;;15.57;47.71
74343;BME280;62767;50.300;8.070;2023-11-19T02:54:51;99444.59;;;15.56;47.75
74343;BME280;62767;50.300;8.070;2023-11-19T02:57:18;99452.47;;;15.56;47.96
74343;BME280;62767;50.300;8.070;2023-11-19T02:59:46;99454.13;;;15.57;47.92
74343;BME280;62767;50.300;8.070;2023-11-19T03:02:12;99454.97;;;15.58;47.80
74343;BME280;62767;50.300;8.070;2023-11-19T03:04:38;99450.69;;;15.57;47.61
74343;BME280;62767;50.300;8.070;2023-11-19T03:07:08;99445.56;;;15.55;47.72
74343;BME280;62767;50.300;8.070;2023-11-19T03:09:33;99450.56;;;15.58;47.81
74343;BME280;62767;50.300;8.070;2023-11-19T03:12:01;99441.97;;;15.56;47.83
74343;BME280;62767;50.300;8.070;2023-11-19T03:14:26;99436.88;;;15.55;47.88
74343;BME280;62767;50.300;8.070;2023-11-19T03:16:53;99432.44;;;15.55;48.00
74343;BME280;62767;50.300;8.070;2023-11-19T03:19:19;99434.09;;;15.56;47.96
74343;BME280;62767;50.300;8.070;2023-11-19T03:21:45;99438.53;;;15.56;47.86
74343;BME280;62767;50.300;8.070;2023-11-19T03:24:13;99437.44;;;15.58;47.85
74343;BME280;62767;50.300;8.070;2023-11-19T03:26:39;99431.47;;;15.56;47.99
74343;BME280;62767;50.300;8.070;2023-11-19T03:29:04;99436.59;;;15.58;47.74
74343;BME280;62767;50.300;8.070;2023-11-19T03:31:30;99433.84;;;15.59;47.83
74343;BME280;62767;50.300;8.070;2023-11-19T03:33:56;99424.31;;;15.58;47.82
74343;BME280;62767;50.300;8.070;2023-11-19T03:36:22;99432.19;;;15.58;48.04
74343;BME280;62767;50.300;8.070;2023-11-19T03:38:48;99428.72;;;15.58;47.73
74343;BME280;62767;50.300;8.070;2023-11-19T03:41:15;99419.19;;;15.57;47.76
74343;BME280;62767;50.300;8.070;2023-11-19T03:43:41;99418.25;;;15.58;47.93
74343;BME280;62767;50.300;8.070;2023-11-19T03:46:19;99415.75;;;15.56;47.84
74343;BME280;62767;50.300;8.070;2023-11-19T03:48:48;99414.66;;;15.59;47.82
74343;BME280;62767;50.300;8.070;2023-11-19T03:51:13;99412.88;;;15.59;47.66
74343;BME280;62767;50.300;8.070;2023-11-19T03:53:44;99417.28;;;15.59;48.05
74343;BME280;62767;50.300;8.070;2023-11-19T03:56:10;99417.28;;;15.59;47.96
74343;BME280;62767;50.300;8.070;2023-11-19T03:58:37;99418.94;;;15.60;47.72
74343;BME280;62767;50.300;8.070;2023-11-19T04:01:10;99420.75;;;15.59;47.89
74343;BME280;62767;50.300;8.070;2023-11-19T04:03:36;99403.47;;;15.57;48.00
74343;BME280;62767;50.300;8.070;2023-11-19T04:06:02;99410.38;;;15.58;47.84
74343;BME280;62767;50.300;8.070;2023-11-19T04:08:28;99401.81;;;15.56;48.06
74343;BME280;62767;50.300;8.070;2023-11-19T04:10:54;99412.03;;;15.59;47.87
74343;BME280;62767;50.300;8.070;2023-11-19T04:13:19;99411.22;;;15.58;47.74
74343;BME280;62767;50.300;8.070;2023-11-19T04:15:45;99405.00;;;15.59;48.08
74343;BME280;62767;50.300;8.070;2023-11-19T04:18:11;99399.75;;;15.59;47.81
74343;BME280;62767;50.300;8.070;2023-11-19T04:20:37;99394.50;;;15.59;48.08
74343;BME280;62767;50.300;8.070;2023-11-19T04:23:02;99398.09;;;15.58;47.94
74343;BME280;62767;50.300;8.070;2023-11-19T04:25:28;99401.56;;;15.59;47.90
74343;BME280;62767;50.300;8.070;2023-11-19T04:27:54;99393.69;;;15.59;48.03
74343;BME280;62767;50.300;8.070;2023-11-19T04:30:19;99399.59;;;15.61;47.91
74343;BME280;62767;50.300;8.070;2023-11-19T04:32:45;99406.69;;;15.60;47.92
74343;BME280;62767;50.300;8.070;2023-11-19T04:35:10;99406.78;;;15.59;47.80
74343;BME280;62767;50.300;8.070;2023-11-19T04:37:36;99409.28;;;15.60;47.92
74343;BME280;62767;50.300;8.070;2023-11-19T04:40:03;99411.75;;;15.62;47.75
74343;BME280;62767;50.300;8.070;2023-11-19T04:42:28;99404.06;;;15.60;47.82
74343;BME280;62767;50.300;8.070;2023-11-19T04:44:55;99403.22;;;15.60;47.79
74343;BME280;62767;50.300;8.070;2023-11-19T04:47:21;99400.59;;;15.60;47.90
74343;BME280;62767;50.300;8.070;2023-11-19T04:49:47;99404.06;;;15.60;48.09
74343;BME280;62767;50.300;8.070;2023-11-19T04:52:12;99400.59;;;15.60;47.71
74343;BME280;62767;50.300;8.070;2023-11-19T04:54:41;99399.59;;;15.61;47.74
74343;BME280;62767;50.300;8.070;2023-11-19T04:57:08;99398.81;;;15.60;47.78
74343;BME280;62767;50.300;8.070;2023-11-19T04:59:36;99405.69;;;15.61;47.81
74343;BME280;62767;50.300;8.070;2023-11-19T05:02:02;99412.88;;;15.59;47.88
74343;BME280;62767;50.300;8.070;2023-11-19T05:04:29;99408.47;;;15.60;47.76
74343;BME280;62767;50.300;8.070;2023-11-19T05:06:55;99405.84;;;15.60;47.79
74343;BME280;62767;50.300;8.070;2023-11-19T05:09:21;99408.47;;;15.60;47.76
74343;BME280;62767;50.300;8.070;2023-11-19T05:11:46;99406.69;;;15.60;47.77
74343;BME280;62767;50.300;8.070;2023-11-19T05:14:12;99409.97;;;15.62;47.62
74343;BME280;62767;50.300;8.070;2023-11-19T05:16:41;99400.44;;;15.61;47.79
74343;BME280;62767;50.300;8.070;2023-11-19T05:19:07;99416.06;;;15.63;47.79
74343;BME280;62767;50.300;8.070;2023-11-19T05:21:32;99412.47;;;15.64;47.76
74343;BME280;62767;50.300;8.070;2023-11-19T05:23:59;99407.47;;;15.61;47.65
74343;BME280;62767;50.300;8.070;2023-11-19T05:26:24;99400.44;;;15.61;47.51
74343;BME280;62767;50.300;8.070;2023-11-19T05:28:50;99390.78;;;15.62;47.78
74343;BME280;62767;50.300;8.070;2023-11-19T05:31:17;99388.16;;;15.62;47.65
74343;BME280;62767;50.300;8.070;2023-11-19T05:33:43;99376.59;;;15.64;47.70
74343;BME280;62767;50.300;8.070;2023-11-19T05:36:11;99392.31;;;15.64;47.70
74343;BME280;62767;50.300;8.070;2023-11-19T05:38:38;99382.78;;;15.63;47.80
74343;BME280;62767;50.300;8.070;2023-11-19T05:41:04;99381.13;;;15.62;47.88
74343;BME280;62767;50.300;8.070;2023-11-19T05:43:31;99402.81;;;15.64;47.82
74343;BME280;62767;50.300;8.070;2023-11-19T05:45:56;99393.28;;;15.63;47.64
74343;BME280;62767;50.300;8.070;2023-11-19T05:48:22;99404.72;;;15.62;47.58
74343;BME280;62767;50.300;8.070;2023-11-19T05:50:48;99421.28;;;15.63;47.74
74343;BME280;62767;50.300;8.070;2023-11-19T05:53:15;99414.38;;;15.62;47.70
74343;BME280;62767;50.300;8.070;2023-11-19T05:55:41;99422.97;;;15.64;47.83
74343;BME280;62767;50.300;8.070;2023-11-19T05:58:26;99430.00;;;15.63;47.70
74343;BME280;62767;50.300;8.070;2023-11-19T06:00:57;99426.66;;;15.61;47.97
74343;BME280;62767;50.300;8.070;2023-11-19T06:03:22;99424.88;;;15.62;47.73
74343;BME280;62767;50.300;8.070;2023-11-19T06:05:51;99418.78;;;15.61;47.80
74343;BME280;62767;50.300;8.070;2023-11-19T06:08:17;99424.75;;;15.63;47.77
74343;BME280;62767;50.300;8.070;2023-11-19T06:10:45;99429.16;;;15.63;47.88
74343;BME280;62767;50.300;8.070;2023-11-19T06:13:15;99418.69;;;15.63;47.73
74343;BME280;62767;50.300;8.070;2023-11-19T06:15:42;99424.75;;;15.63;47.89
74343;BME280;62767;50.300;8.070;2023-11-19T06:18:08;99437.03;;;15.63;48.01
74343;BME280;62767;50.300;8.070;2023-11-19T06:20:34;99434.41;;;15.63;47.62
74343;BME280;62767;50.300;8.070;2023-11-19T06:23:00;99431.66;;;15.64;47.66
74343;BME280;62767;50.300;8.070;2023-11-19T06:25:26;99425.59;;;15.64;47.75
74343;BME280;62767;50.300;8.070;2023-11-19T06:27:52;99435.25;;;15.63;47.75
74343;BME280;62767;50.300;8.070;2023-11-19T06:30:18;99444.78;;;15.64;47.81
74343;BME280;62767;50.300;8.070;2023-11-19T06:32:44;99438.69;;;15.64;47.76
74343;BME280;62767;50.300;8.070;2023-11-19T06:35:10;99448.47;;;15.62;47.82
74343;BME280;62767;50.300;8.070;2023-11-19T06:37:38;99444.91;;;15.63;47.78
74343;BME280;62767;50.300;8.070;2023-11-19T06:40:04;99441.31;;;15.64;47.95
74343;BME280;62767;50.300;8.070;2023-11-19T06:42:30;99443.13;;;15.63;47.88
74343;BME280;62767;50.300;8.070;2023-11-19T06:44:56;99442.28;;;15.63;47.83
74343;BME280;62767;50.300;8.070;2023-11-19T06:47:26;99439.66;;;15.63;47.90
74343;BME280;62767;50.300;8.070;2023-11-19T06:49:53;99440.63;;;15.62;47.69
74343;BME280;62767;50.300;8.070;2023-11-19T06:52:19;99438.00;;;15.62;47.79
74343;BME280;62767;50.300;8.070;2023-11-19T06:54:45;99445.75;;;15.63;47.98
74343;BME280;62767;50.300;8.070;2023-11-19T06:57:13;99451.94;;;15.62;47.84
74343;BME280;62767;50.300;8.070;2023-11-19T06:59:39;99452.22;;;15.59;48.23
74343;BME280;62767;50.300;8.070;2023-11-19T07:02:05;99448.34;;;15.63;47.62
74343;BME280;62767;50.300;8.070;2023-11-19T07:04:31;99453.59;;;15.63;47.68
74343;BME280;62767;50.300;8.070;2023-11-19T07:06:58;99456.50;;;15.60;48.01
74343;BME280;62767;50.300;8.070;2023-11-19T07:09:26;99459.94;;;15.61;47.97
74343;BME280;62767;50.300;8.070;2023-11-19T07:11:51;99456.34;;;15.62;47.74
74343;BME280;62767;50.300;8.070;2023-11-19T07:14:18;99464.94;;;15.64;48.02
74343;BME280;62767;50.300;8.070;2023-11-19T07:16:44;99464.22;;;15.62;47.96
74343;BME280;62767;50.300;8.070;2023-11-19T07:19:11;99461.47;;;15.63;47.97
74343;BME280;62767;50.300;8.070;2023-11-19T07:21:41;99459.81;;;15.62;48.00
74343;BME280;62767;50.300;8.070;2023-11-19T07:24:12;99460.75;;;15.61;48.12
74343;BME280;62767;50.300;8.070;2023-11-19T07:26:46;99464.38;;;15.60;47.88
74343;BME280;62767;50.300;8.070;2023-11-19T07:29:15;99466.00;;;15.61;47.93
74343;BME280;62767;50.300;8.070;2023-11-19T07:31:42;99467.00;;;15.60;47.87
74343;BME280;62767;50.300;8.070;2023-11-19T07:34:10;99466.00;;;15.61;47.88
74343;BME280;62767;50.300;8.070;2023-11-19T07:36:37;99471.97;;;15.63;47.55
74343;BME280;62767;50.300;8.070;2023-11-19T07:39:04;99478.06;;;15.64;47.75
74343;BME280;62767;50.300;8.070;2023-11-19T07:41:30;99483.28;;;15.64;47.71
74343;BME280;62767;50.300;8.070;2023-11-19T07:43:56;99484.97;;;15.65;47.89
74343;BME280;62767;50.300;8.070;2023-11-19T07:46:22;99480.69;;;15.64;47.75
74343;BME280;62767;50.300;8.070;2023-11-19T07:48:47;99486.88;;;15.63;47.88
74343;BME280;62767;50.300;8.070;2023-11-19T07:51:14;99492.84;;;15.65;47.83
74343;BME280;62767;50.300;8.070;2023-11-19T07:53:40;99498.19;;;15.63;47.84
74343;BME280;62767;50.300;8.070;2023-11-19T07:56:09;99494.63;;;15.64;47.76
74343;BME280;62767;50.300;8.070;2023-11-19T07:58:34;99499.88;;;15.64;47.97
74343;BME280;62767;50.300;8.070;2023-11-19T08:01:00;99505.13;;;15.64;47.76
74343;BME280;62767;50.300;8.070;2023-11-19T08:03:27;99508.56;;;15.65;47.83
74343;BME280;62767;50.300;8.070;2023-11-19T08:05:55;99514.50;;;15.67;47.60
74343;BME280;62767;50.300;8.070;2023-11-19T08:08:21;99512.97;;;15.64;47.70
74343;BME280;62767;50.300;8.070;2023-11-19T08:10:46;99514.50;;;15.67;47.44
74343;BME280;62767;50.300;8.070;2023-11-19T08:13:13;99509.41;;;15.65;47.77
74343;BME280;62767;50.300;8.070;2023-11-19T08:15:39;99517.97;;;15.68;47.89
74343;BME280;62767;50.300;8.070;2023-11-19T08:18:05;99508.41;;;15.66;47.63
74343;BME280;62767;50.300;8.070;2023-11-19T08:20:33;99511.88;;;15.67;47.73
74343;BME280;62767;50.300;8.070;2023-11-19T08:22:59;99499.59;;;15.68;47.82
74343;BME280;62767;50.300;8.070;2023-11-19T08:25:24;99517.97;;;15.68;47.65
74343;BME280;62767;50.300;8.070;2023-11-19T08:27:50;99513.53;;;15.68;47.50
74343;BME280;62767;50.300;8.070;2023-11-19T08:30:15;99511.75;;;15.69;47.66
74343;BME280;62767;50.300;8.070;2023-11-19T08:32:41;99515.22;;;15.69;47.58
74343;BME280;62767;50.300;8.070;2023-11-19T08:35:07;99521.16;;;15.71;47.50
74343;BME280;62767;50.300;8.070;2023-11-19T08:37:34;99513.41;;;15.70;47.78
74343;BME280;62767;50.300;8.070;2023-11-19T08:40:01;99505.66;;;15.68;47.66
74343;BME280;62767;50.300;8.070;2023-11-19T08:42:28;99507.47;;;15.68;47.52
74343;BME280;62767;50.300;8.070;2023-11-19T08:44:55;99512.59;;;15.69;47.78
74343;BME280;62767;50.300;8.070;2023-11-19T08:47:20;99516.88;;;15.70;47.61
74343;BME280;62767;50.300;8.070;2023-11-19T08:49:50;99514.38;;;15.69;47.74
74343;BME280;62767;50.300;8.070;2023-11-19T08:52:17;99506.38;;;15.70;47.75
74343;BME280;62767;50.300;8.070;2023-11-19T08:54:43;99516.88;;;15.70;47.82
74343;BME280;62767;50.300;8.070;2023-11-19T08:57:08;99516.88;;;15.70;47.57
74343;BME280;62767;50.300;8.070;2023-11-19T08:59:35;99522.97;;;15.71;47.59
74343;BME280;62767;50.300;8.070;2023-11-19T09:02:00;99516.75;;;15.72;47.42
74343;BME280;62767;50.300;8.070;2023-11-19T09:04:27;99534.28;;;15.71;47.65
74343;BME280;62767;50.300;8.070;2023-11-19T09:06:53;99528.88;;;15.73;47.40
74343;BME280;62767;50.300;8.070;2023-11-19T09:09:18;99538.44;;;15.74;47.54
74343;BME280;62767;50.300;8.070;2023-11-19T09:11:44;99533.19;;;15.74;47.54
74343;BME280;62767;50.300;8.070;2023-11-19T09:14:09;99536.63;;;15.74;47.49
74343;BME280;62767;50.300;8.070;2023-11-19T09:16:35;99540.22;;;15.73;47.77
74343;BME280;62767;50.300;8.070;2023-11-19T09:19:01;99541.03;;;15.74;47.58
74343;BME280;62767;50.300;8.070;2023-11-19T09:21:28;99529.59;;;15.75;47.52
74343;BME280;62767;50.300;8.070;2023-11-19T09:23:55;99534.00;;;15.74;47.56
74343;BME280;62767;50.300;8.070;2023-11-19T09:26:21;99531.25;;;15.76;47.49
74343;BME280;62767;50.300;8.070;2023-11-19T09:28:46;99536.50;;;15.76;47.39
74343;BME280;62767;50.300;8.070;2023-11-19T09:31:16;99514.56;;;15.77;47.51
74343;BME280;62767;50.300;8.070;2023-11-19T09:33:42;99533.75;;;15.77;47.43
74343;BME280;62767;50.300;8.070;2023-11-19T09:36:08;99531.97;;;15.78;47.45
74343;BME280;62767;50.300;8.070;2023-11-19T09:38:35;99535.56;;;15.77;47.54
74343;BME280;62767;50.300;8.070;2023-11-19T09:41:05;99541.75;;;15.76;47.29
74343;BME280;62767;50.300;8.070;2023-11-19T09:43:34;99541.75;;;15.76;47.45
74343;BME280;62767;50.300;8.070;2023-11-19T09:46:09;99548.69;;;15.77;47.57
74343;BME280;62767;50.300;8.070;2023-11-19T09:48:39;99552.97;;;15.78;47.44
74343;BME280;62767;50.300;8.070;2023-11-19T09:51:09;99545.09;;;15.78;47.42
74343;BME280;62767;50.300;8.070;2023-11-19T09:53:35;99549.63;;;15.76;47.38
74343;BME280;62767;50.300;8.070;2023-11-19T09:56:02;99547.97;;;15.75;47.54
74343;BME280;62767;50.300;8.070;2023-11-19T09:58:34;99554.03;;;15.75;47.54
74343;BME280;62767;50.300;8.070;2023-11-19T10:01:00;99549.34;;;15.79;47.46
74343;BME280;62767;50.300;8.070;2023-11-19T10:03:34;99544.94;;;15.79;47.41
74343;BME280;62767;50.300;8.070;2023-11-19T10:06:09;99553.78;;;15.78;47.27
74343;BME280;62767;50.300;8.070;2023-11-19T10:08:39;99542.19;;;15.81;47.40
74343;BME280;62767;50.300;8.070;2023-11-19T10:11:08;99546.72;;;15.79;47.54
74343;BME280;62767;50.300;8.070;2023-11-19T10:13:36;99539.56;;;15.81;47.52
74343;BME280;62767;50.300;8.070;2023-11-19T10:16:09;99544.94;;;15.79;47.27
74343;BME280;62767;50.300;8.070;2023-11-19T10:18:37;99542.31;;;15.79;47.38
74343;BME280;62767;50.300;8.070;2023-11-19T10:21:06;99536.13;;;15.80;47.44
74343;BME280;62767;50.300;8.070;2023-11-19T10:26:13;99549.13;;;15.82;47.10
74343;BME280;62767;50.300;8.070;2023-11-19T10:28:39;99541.25;;;15.82;47.34
74343;BME280;62767;50.300;8.070;2023-11-19T10:31:12;99561.41;;;15.81;47.44
74343;BME280;62767;50.300;8.070;2023-11-19T10:33:38;99550.91;;;15.81;47.29
74343;BME280;62767;50.300;8.070;2023-11-19T10:36:04;99554.47;;;15.80;47.23
74343;BME280;62767;50.300;8.070;2023-11-19T10:38:30;99537.66;;;15.83;47.38
74343;BME280;62767;50.300;8.070;2023-11-19T10:40:56;99541.13;;;15.83;47.31
74343;BME280;62767;50.300;8.070;2023-11-19T10:43:22;99540.28;;;15.83;47.27
74343;BME280;62767;50.300;8.070;2023-11-19T10:45:48;99552.69;;;15.81;47.38
74343;BME280;62767;50.300;8.070;2023-11-19T10:48:14;99537.66;;;15.83;47.40
74343;BME280;62767;50.300;8.070;2023-11-19T10:50:42;99541.91;;;15.84;47.32
74343;BME280;62767;50.300;8.070;2023-11-19T10:53:11;99536.56;;;15.85;47.51
74343;BME280;62767;50.300;8.070;2023-11-19T10:55:41;99518.31;;;15.84;47.28
74343;BME280;62767;50.300;8.070;2023-11-19T10:58:08;99519.00;;;15.86;47.34
74343;BME280;62767;50.300;8.070;2023-11-19T11:00:44;99518.06;;;15.87;47.27
74343;BME280;62767;50.300;8.070;2023-11-19T11:03:16;99518.06;;;15.87;47.10
74343;BME280;62767;50.300;8.070;2023-11-19T11:05:42;99499.81;;;15.85;47.19
74343;BME280;62767;50.300;8.070;2023-11-19T11:08:08;99506.72;;;15.86;47.21
74343;BME280;62767;50.300;8.070;2023-11-19T11:11:01;99504.09;;;15.86;47.37
74343;BME280;62767;50.300;8.070;2023-11-19T11:13:27;99504.94;;;15.87;47.32
74343;BME280;62767;50.300;8.070;2023-11-19T11:15:56;99518.06;;;15.87;47.41
74343;BME280;62767;50.300;8.070;2023-11-19T11:18:26;99517.22;;;15.86;47.51
74343;BME280;62767;50.300;8.070;2023-11-19T11:20:56;99500.66;;;15.86;47.39
74343;BME280;62767;50.300;8.070;2023-11-19T11:23:34;99500.66;;;15.86;47.24
74343;BME280;62767;50.300;8.070;2023-11-19T11:29:03;99494.31;;;15.88;47.24
74343;BME280;62767;50.300;8.070;2023-11-19T11:34:38;99514.34;;;15.89;47.21
74343;BME280;62767;50.300;8.070;2023-11-19T11:39:49;99506.47;;;15.89;47.36
74343;BME280;62767;50.300;8.070;2023-11-19T11:50:12;99500.25;;;15.90;47.30
74343;BME280;62767;50.300;8.070;2023-11-19T11:55:35;99492.38;;;15.90;47.33
74343;BME280;62767;50.300;8.070;2023-11-19T11:58:07;99504.41;;;15.93;47.62
74343;BME280;62767;50.300;8.070;2023-11-19T12:00:38;99504.53;;;15.91;47.29
74343;BME280;62767;50.300;8.070;2023-11-19T12:03:06;99493.91;;;15.93;47.28
74343;BME280;62767;50.300;8.070;2023-11-19T12:05:33;99500.81;;;15.94;47.34
74343;BME280;62767;50.300;8.070;2023-11-19T12:08:03;99496.41;;;15.94;47.48
74343;BME280;62767;50.300;8.070;2023-11-19T12:10:30;99501.66;;;15.94;47.09
74343;BME280;62767;50.300;8.070;2023-11-19T12:12:59;99490.19;;;15.95;47.28
74343;BME280;62767;50.300;8.070;2023-11-19T12:15:26;99487.56;;;15.95;47.39
74343;BME280;62767;50.300;8.070;2023-11-19T12:17:54;99471.81;;;15.95;47.09
74343;BME280;62767;50.300;8.070;2023-11-19T12:20:22;99476.94;;;15.97;47.32
74343;BME280;62767;50.300;8.070;2023-11-19T12:22:48;99470.84;;;15.96;47.26
74343;BME280;62767;50.300;8.070;2023-11-19T12:25:16;99469.88;;;15.97;47.43
74343;BME280;62767;50.300;8.070;2023-11-19T12:27:44;99447.94;;;15.98;47.18
74343;BME280;62767;50.300;8.070;2023-11-19T12:30:10;99441.84;;;15.98;47.36
74343;BME280;62767;50.300;8.070;2023-11-19T12:32:44;99449.72;;;15.98;47.29
74343;BME280;62767;50.300;8.070;2023-11-19T12:35:10;99450.56;;;15.98;47.25
74343;BME280;62767;50.300;8.070;2023-11-19T12:37:43;99457.59;;;15.98;47.32
74343;BME280;62767;50.300;8.070;2023-11-19T12:40:22;99461.06;;;15.98;47.38
74343;BME280;62767;50.300;8.070;2023-11-19T12:42:49;99454.84;;;15.99;47.53
74343;BME280;62767;50.300;8.070;2023-11-19T12:45:15;99445.19;;;16.00;47.57
74343;BME280;62767;50.300;8.070;2023-11-19T12:47:45;99433.84;;;15.99;47.23
74343;BME280;62767;50.300;8.070;2023-11-19T12:50:16;99436.19;;;16.02;47.23
74343;BME280;62767;50.300;8.070;2023-11-19T12:52:55;99438.13;;;16.00;47.23
74343;BME280;62767;50.300;8.070;2023-11-19T12:55:28;99423.06;;;16.02;47.47
74343;BME280;62767;50.300;8.070;2023-11-19T12:57:54;99418.78;;;16.01;47.33
74343;BME280;62767;50.300;8.070;2023-11-19T13:00:25;99408.97;;;16.03;47.21
74343;BME280;62767;50.300;8.070;2023-11-19T13:02:53;99419.47;;;16.03;47.42
74343;BME280;62767;50.300;8.070;2023-11-19T13:07:47;99409.81;;;16.04;47.29
74343;BME280;62767;50.300;8.070;2023-11-19T13:10:13;99412.31;;;16.05;47.14
74343;BME280;62767;50.300;8.070;2023-11-19T13:12:38;99404.56;;;16.04;47.15
74343;BME280;62767;50.300;8.070;2023-11-19T13:15:05;99400.03;;;16.06;47.26
74343;BME280;62767;50.300;8.070;2023-11-19T13:17:30;99400.03;;;16.06;47.40
74343;BME280;62767;50.300;8.070;2023-11-19T13:19:56;99400.69;;;16.08;47.34
74343;BME280;62767;50.300;8.070;2023-11-19T13:22:22;99396.28;;;16.08;47.35
74343;BME280;62767;50.300;8.070;2023-11-19T13:24:48;99404.16;;;16.08;47.33